Latest Coastal Weather Observations for Charles Point

IDD60701

Issued at 5:31 pm CST Monday 23 October 2017 (issued every 10 minutes, with the page automatically refreshed every 10 minutes)

About coastal observations | Map of coastal stations | Coastal observations for NT | Marine services | Other Formats
Station Details ID: 014031 Name: CHARLES POINT Lat: -12.39 Lon: 130.63 Height: 14.0 m
Data from the previous 72 hours. | See also: Recent months for locations in Northern Territory
Date/Time
CST
Temp
°C
Wind Pressure Rain since
9am
mm
Weather Cloud Vis
km
Sea
Height
m
Swell
Dir  Spd
kts
Gust
kts
hPa Trend Height
m
Period
s
Dir
23/05:30pm 30.6 NW 9 13 1008.7 - 0.0 - - - - - - -
23/05:00pm 31.3 NW 8 12 1008.5 - 0.0 - - - - - - -
23/04:30pm 31.1 NNW 9 13 1008.5 - 0.0 - - - - - - -
23/04:00pm 31.5 NNW 8 11 1008.6 - 0.0 - - - - - - -
23/03:30pm 31.7 NW 8 10 1008.9 - 0.0 - - - - - - -
23/03:00pm 31.5 NW 8 10 1008.8 - 0.0 - - - - - - -
23/02:30pm 31.8 NW 7 11 1008.8 - 0.0 - - - - - - -
23/02:00pm 32.4 NW 7 10 1009.1 - 0.0 - - - - - - -
23/01:30pm 32.3 NW 5 9 1009.7 - 0.0 - - - - - - -
23/01:00pm 32.0 NW 6 9 1010.4 - 0.0 - - - - - - -
23/12:30pm 32.3 WNW 6 9 1010.9 - 0.0 - - - - - - -
23/12:00pm 32.1 WNW 6 9 1011.5 - 0.0 - - - - - - -
23/11:30am 30.9 WNW 5 7 1011.6 - 0.0 - - - - - - -
23/11:00am 30.9 WNW 4 5 1012.0 - 0.0 - - - - - - -
23/10:30am 30.7 WNW 5 7 1012.2 - 0.0 - - - - - - -
23/10:00am 30.7 WNW 3 5 1012.3 - 0.0 - - - - - - -
23/09:30am 31.1 S 2 4 1012.4 - 0.0 - - - - - - -
23/09:00am 30.7 S 3 5 1012.3 - 0.0 - - - - - - -
23/08:30am 30.4 SSE 4 6 1012.2 - 0.0 - - - - - - -
23/08:00am 29.7 SE 3 5 1011.9 - 0.0 - - - - - - -
23/07:30am 28.5 SSE 3 5 1011.7 - 0.0 - - - - - - -
23/07:00am 27.2 S 3 4 1011.4 - 0.0 - - - - - - -
23/06:30am 26.7 S 3 5 1011.1 - 0.0 - - - - - - -
23/06:00am 26.5 S 2 4 1011.0 - 0.0 - - - - - - -
23/05:30am 26.5 SW 3 5 1010.6 - 0.0 - - - - - - -
23/05:00am 26.4 WSW 2 3 1010.3 - 0.0 - - - - - - -
23/04:30am 26.1 CALM 0 2 1010.0 - 0.0 - - - - - - -
23/04:00am 26.1 CALM 0 1 1009.7 - 0.0 - - - - - - -
23/03:30am 26.5 CALM 0 0 1009.6 - 0.0 - - - - - - -
23/03:00am 26.9 WSW 1 2 1009.6 - 0.0 - - - - - - -
23/02:30am 27.4 WSW 2 3 1009.7 - 0.0 - - - - - - -
23/02:00am 27.8 W 2 4 1009.9 - 0.0 - - - - - - -
23/01:30am 27.9 W 3 6 1010.0 - 0.0 - - - - - - -
23/01:00am 28.4 W 5 8 1010.2 - 0.0 - - - - - - -
23/12:30am 28.6 WNW 8 10 1010.2 - 0.0 - - - - - - -
23/12:00am 28.5 WNW 8 11 1010.5 - 0.0 - - - - - - -
 
Date/Time
CST
Temp
°C
Wind Pressure Rain since
9am
mm
Weather Cloud Vis
km
Sea
Height
m
Swell
Dir  Spd
kts
Gust
kts
hPa Trend Height
m
Period
s
Dir
22/11:30pm 28.8 WNW 9 12 1010.8 - 0.0 - - - - - - -
22/11:00pm 28.9 NW 9 12 1011.2 - 0.0 - - - - - - -
22/10:30pm 28.9 NW 7 11 1011.2 - 0.0 - - - - - - -
22/10:00pm 29.0 NNW 9 14 1011.1 - 0.0 - - - - - - -
22/09:30pm 29.0 NW 9 14 1010.7 - 0.0 - - - - - - -
22/09:00pm 29.2 NW 9 15 1010.4 - 0.0 - - - - - - -
22/08:30pm 29.4 NW 8 12 1010.4 - 0.0 - - - - - - -
22/08:00pm 29.1 NW 7 10 1010.0 - 0.0 - - - - - - -
22/07:30pm 28.9 NW 7 9 1009.6 - 0.0 - - - - - - -
22/07:00pm 28.9 NW 6 8 1009.4 - 0.0 - - - - - - -
22/06:30pm 29.0 WNW 5 8 1009.0 - 0.0 - - - - - - -
22/06:00pm 29.6 NW 8 10 1008.7 - 0.0 - - - - - - -
22/05:30pm 29.6 NW 5 8 1008.4 - 0.0 - - - - - - -
22/05:00pm 30.3 NW 6 9 1008.1 - 0.0 - - - - - - -
22/04:30pm 30.3 NW 5 9 1008.0 - 0.0 - - - - - - -
22/04:00pm 30.4 N 4 8 1008.0 - 0.0 - - - - - - -
22/03:30pm 30.2 N 4 6 1008.1 - 0.0 - - - - - - -
22/03:00pm 29.4 NNE 4 5 1008.4 - 0.0 - - - - - - -
22/02:30pm 29.3 NNE 2 5 1008.7 - 0.0 - - - - - - -
22/02:00pm 29.2 NNE 3 5 1009.1 - 0.0 - - - - - - -
22/01:30pm 29.1 NNE 2 4 1009.9 - 0.0 - - - - - - -
22/01:00pm 29.9 NNE 2 3 1010.7 - 0.0 - - - - - - -
22/12:30pm 29.8 NE 2 4 1011.2 - 0.0 - - - - - - -
22/12:00pm 29.1 ENE 3 5 1011.6 - 0.0 - - - - - - -
22/11:30am 28.1 ENE 3 5 1011.6 - 0.0 - - - - - - -
22/11:00am 27.8 NE 7 11 1012.3 - 0.0 - - - - - - -
22/10:30am 27.5 NE 6 9 1012.3 - 0.0 - - - - - - -
22/10:00am 27.7 NNE 4 7 1012.1 - 0.0 - - - - - - -
22/09:30am 27.2 NE 11 15 1012.4 - 0.0 - - - - - - -
22/09:09am 26.8 NE 9 19 1012.2 - 0.0 - - - - - - -
22/09:00am 27.7 ENE 2 6 1012.4 - 3.2 Recent precip. - - - - - -
22/08:30am 26.7 NE 1 2 1011.4 - 3.2 - - - - - - -
22/08:00am 26.0 NNE 4 9 1011.7 - 1.6 - - - - - - -
22/07:30am 27.5 N 10 13 1011.4 - 0.0 - - - - - - -
22/07:00am 27.9 WSW 3 8 1011.2 - 0.0 - - - - - - -
22/06:30am 27.7 SW 3 5 1010.5 - 0.0 - - - - - - -
22/06:00am 27.9 CALM 0 0 1010.3 - 0.0 - - - - - - -
22/05:30am 28.3 CALM 0 1 1010.1 - 0.0 - - - - - - -
22/05:00am 27.7 CALM 0 1 1009.6 - 0.0 - - - - - - -
22/04:30am 27.6 WSW 1 2 1009.3 - 0.0 - - - - - - -
22/04:00am 27.7 WSW 1 2 1009.2 - 0.0 - - - - - - -
22/03:30am 27.7 CALM 0 1 1009.1 - 0.0 - - - - - - -
22/03:00am 27.6 WSW 1 3 1009.0 - 0.0 - - - - - - -
22/02:30am 27.8 WSW 1 2 1009.2 - 0.0 - - - - - - -
22/02:00am 28.2 W 1 3 1009.5 - 0.0 - - - - - - -
22/01:30am 28.2 W 2 4 1009.6 - 0.0 - - - - - - -
22/01:00am 28.4 W 2 3 1009.9 - 0.0 - - - - - - -
22/12:30am 28.8 WNW 2 5 1010.3 - 0.0 - - - - - - -
22/12:00am 29.1 W 3 6 1010.4 - 0.0 - - - - - - -
 
Date/Time
CST
Temp
°C
Wind Pressure Rain since
9am
mm
Weather Cloud Vis
km
Sea
Height
m
Swell
Dir  Spd
kts
Gust
kts
hPa Trend Height
m
Period
s
Dir
21/11:30pm 29.2 W 4 7 1010.5 - 0.0 - - - - - - -
21/11:00pm 29.4 W 4 6 1010.6 - 0.0 - - - - - - -
21/10:30pm 29.4 W 4 7 1010.8 - 0.0 - - - - - - -
21/10:00pm 29.7 W 6 10 1010.9 - 0.0 - - - - - - -
21/09:30pm 29.6 W 4 8 1010.8 - 0.0 - - - - - - -
21/09:00pm 29.4 W 4 7 1010.5 - 0.0 - - - - - - -
21/08:30pm 29.2 WSW 3 6 1010.5 - 0.0 - - - - - - -
21/08:00pm 29.1 WSW 3 7 1010.3 - 0.0 - - - - - - -
21/07:30pm 29.2 WSW 2 6 1010.1 - 0.0 - - - - - - -
21/07:00pm 29.4 W 2 5 1009.6 - 0.0 - - - - - - -
21/06:30pm 29.7 W 2 5 1009.3 - 0.0 - - - - - - -
21/06:00pm 30.3 WSW 2 5 1009.2 - 0.0 - - - - - - -
21/05:30pm 30.7 WNW 5 7 1009.0 - 0.0 - - - - - - -
21/05:00pm 31.5 WNW 5 7 1009.2 - 0.0 - - - - - - -
21/04:30pm 31.3 NNW 3 5 1009.4 - 0.0 - - - - - - -
21/04:00pm 31.6 N 5 7 1009.5 - 0.0 - - - - - - -
21/03:30pm 31.3 N 7 9 1009.5 - 0.0 - - - - - - -
21/03:00pm 32.5 NNW 6 10 1009.9 - 0.0 - - - - - - -
21/02:30pm 32.0 NNW 8 11 1010.5 - 0.0 - - - - - - -
21/02:00pm 32.2 NW 7 10 1010.9 - 0.0 - - - - - - -
21/01:30pm 31.9 NNW 6 9 1011.4 - 0.0 - - - - - - -
21/01:00pm 31.6 NNW 5 8 1012.0 - 0.0 - - - - - - -
21/12:30pm 31.2 N 6 7 1012.4 - 0.0 - - - - - - -
21/12:00pm 31.0 N 8 9 1012.7 - 0.0 - - - - - - -
21/11:30am 31.2 NNE 5 6 1013.1 - 0.0 - - - - - - -
21/11:00am 31.2 NE 3 4 1013.2 - 0.0 - - - - - - -
21/10:30am 31.6 NE 3 4 1013.6 - 0.0 - - - - - - -
21/10:00am 31.1 ENE 2 4 1013.7 - 0.0 - - - - - - -
21/09:30am 31.6 E 3 6 1013.6 - 0.0 - - - - - - -
21/09:00am 30.6 ENE 3 5 1013.5 - 2.2 Recent precip. - - - - - -
21/08:30am 30.5 E 2 3 1013.2 - 2.2 - - - - - - -
21/08:00am 29.1 E 3 4 1012.9 - 2.0 - - - - - - -
21/07:30am 28.0 ESE 3 5 1012.7 - 2.0 - - - - - - -
21/07:00am 26.6 E 3 4 1012.2 - 2.0 - - - - - - -
21/06:30am 26.2 E 3 4 1011.8 - 2.0 - - - - - - -
21/06:00am 26.3 ENE 3 4 1011.4 - 2.0 - - - - - - -
21/05:30am 26.4 ENE 3 5 1011.4 - 2.0 - - - - - - -
21/05:00am 27.0 ENE 3 4 1011.3 - 2.0 - - - - - - -
21/04:30am 29.0 NE 4 7 1011.1 - 2.0 - - - - - - -
21/04:00am 29.2 NNE 5 7 1011.0 - 2.0 - - - - - - -
21/03:30am 29.1 NNE 5 7 1010.7 - 2.0 - - - - - - -
21/03:00am 29.0 NE 7 11 1011.0 - 2.0 - - - - - - -
21/02:30am 25.8 CALM 0 0 1011.1 - 2.0 - - - - - - -
21/02:00am 25.0 CALM 0 0 1011.2 - 2.0 - - - - - - -
21/01:30am 25.7 CALM 0 1 1011.4 - 2.0 - - - - - - -
21/01:00am 25.5 SSW 1 2 1011.7 - 2.0 - - - - - - -
21/12:30am 26.4 S 2 3 1012.0 - 0.6 - - - - - - -
21/12:00am 26.3 SSW 4 5 1012.1 - 0.4 - - - - - - -
 
Date/Time
CST
Temp
°C
Wind Pressure Rain since
9am
mm
Weather Cloud Vis
km
Sea
Height
m
Swell
Dir  Spd
kts
Gust
kts
hPa Trend Height
m
Period
s
Dir
20/11:30pm 27.2 NW 3 7 1012.4 - 0.4 - - - - - - -
20/11:00pm 29.0 N 4 7 1012.2 - 0.4 - - - - - - -
20/10:30pm 28.6 NNE 7 10 1012.3 - 0.4 - - - - - - -
20/10:00pm 29.3 N 9 13 1012.1 - 0.0 - - - - - - -
20/09:30pm 29.6 N 10 12 1011.7 - 0.0 - - - - - - -
20/09:00pm 29.5 NNW 9 14 1011.4 - 0.0 - - - - - - -
20/08:30pm 30.3 NW 8 10 1011.3 - 0.0 - - - - - - -
20/08:00pm 29.8 WNW 3 7 1011.1 - 0.0 - - - - - - -
20/07:30pm 29.5 WNW 2 6 1010.5 - 0.0 - - - - - - -
20/07:00pm 29.6 WSW 2 4 1009.6 - 0.0 - - - - - - -
20/06:30pm 30.2 W 3 6 1009.1 - 0.0 - - - - - - -
20/06:00pm 31.1 W 5 9 1008.8 - 0.0 - - - - - - -

Other Formats:

Comma delimited format used in spreadsheet applications
http://www.bom.gov.au/fwo/IDD60701/IDD60701.99510.axf

JavaScript Object Notation format (JSON) in row-major order
http://www.bom.gov.au/fwo/IDD60701/IDD60701.99510.json